aviador You're here:

SAWE Decoded Metar

RIO GRANDE in ARGENTINA
Report Time2017-11-24 10:00:00
UTC Time2017-11-24 11:04:48
Flight Rules vfr VFR
Wind270° at 22 Gusting to 32 kt
W.Decomp.*RWY 25: 21.8 kt HW 3.1 kt RCW
W.Rank270° ranks 3
Current wind is above 270° avg. (16.5)
Visibility9999 m
Phenomena:N/A
Clouds:N/A
Expected CloudBase > 1,200 ft AGL from Temp-Dew spread
CeilingNone
Temp07°C (ISA -8)
Dew Point04°C (81% RH)
AAT-2.2°C
QNH0989 hPa
Density Alt62 ft
Elevation72 ft
Report Wrong Elevation
Raw Report
METAR SAWE 241000Z 27022G32KT CAVOK 07/04 Q0989=

Extra information for SAWE:More info

Metar Taf Metar & Taf Last 4 Metars F.Rules Stats Wind Profile Meteogram Temp Stats Airport Information Weather charts Add Link Nearby VenuesMetar ALERT Operation Metar Decoded Social comments